createdAt,value
2023-04-25T00:00:53.927Z,92294.88
2023-04-25T00:02:26.520Z,92297.31
2023-04-25T00:03:58.650Z,92296.84
2023-04-25T00:05:31.694Z,92298.59
2023-04-25T00:07:03.345Z,92296.09
2023-04-25T00:08:34.919Z,92285.03
2023-04-25T00:10:07.601Z,92282.91
2023-04-25T00:11:39.186Z,92289.25
2023-04-25T00:13:12.579Z,92281.16
2023-04-25T00:14:44.273Z,92279.59
2023-04-25T00:16:16.759Z,92280.22
2023-04-25T00:17:49.173Z,92275.63
2023-04-25T00:19:20.853Z,92278.66
2023-04-25T00:20:52.445Z,92288.31
2023-04-25T00:22:24.367Z,92283.38
2023-04-25T00:23:56.469Z,92286.22
2023-04-25T00:25:28.103Z,92284.44
2023-04-25T00:26:59.701Z,92287.44
2023-04-25T00:28:31.262Z,92281.50
2023-04-25T00:30:03.724Z,92289.41
2023-04-25T00:31:35.296Z,92288.50
2023-04-25T00:33:06.997Z,92282.00
2023-04-25T00:34:38.560Z,92282.91
2023-04-25T00:36:10.701Z,92284.19
2023-04-25T00:37:42.187Z,92287.59
2023-04-25T00:39:13.819Z,92285.38
2023-04-25T00:40:45.433Z,92278.09
2023-04-25T00:42:17.085Z,92280.63
2023-04-25T00:43:49.110Z,92280.97
2023-04-25T00:45:20.917Z,92272.25
2023-04-25T00:46:52.500Z,92272.50
2023-04-25T00:48:24.429Z,92279.28
2023-04-25T00:49:55.930Z,92260.22
2023-04-25T00:51:27.849Z,92263.66
2023-04-25T00:52:59.410Z,92259.50
2023-04-25T00:54:31.830Z,92259.00
2023-04-25T00:56:03.403Z,92252.97
2023-04-25T00:57:34.979Z,92265.75
2023-04-25T00:59:06.617Z,92254.78
2023-04-25T01:00:38.112Z,92260.63
2023-04-25T01:02:10.357Z,92256.38
2023-04-25T01:03:42.558Z,92247.16
2023-04-25T01:05:14.697Z,92250.28
2023-04-25T01:06:46.254Z,92246.84
2023-04-25T01:08:17.798Z,92236.41
2023-04-25T01:09:49.398Z,92240.53
2023-04-25T01:11:21.221Z,92237.50
2023-04-25T01:12:52.691Z,92239.53
2023-04-25T01:14:24.188Z,92244.25
2023-04-25T01:15:55.954Z,92240.59
2023-04-25T01:17:28.458Z,92235.19
2023-04-25T01:19:00.392Z,92232.63
2023-04-25T01:20:31.956Z,92232.75
2023-04-25T01:22:04.726Z,92226.56
2023-04-25T01:23:36.554Z,92231.06
2023-04-25T01:25:08.399Z,92225.66
2023-04-25T01:26:41.062Z,92224.88
2023-04-25T01:28:12.625Z,92222.53
2023-04-25T01:29:44.190Z,92219.38
2023-04-25T01:31:15.916Z,92219.38
2023-04-25T01:32:47.498Z,92216.66
2023-04-25T01:34:19.184Z,92227.44
2023-04-25T01:35:50.759Z,92215.22
2023-04-25T01:37:22.246Z,92224.88
2023-04-25T01:38:53.830Z,92222.97
2023-04-25T01:40:25.874Z,92221.06
2023-04-25T01:41:57.744Z,92223.09
2023-04-25T01:43:29.383Z,92221.19
2023-04-25T01:45:01.014Z,92213.00
2023-04-25T01:46:34.049Z,92206.03
2023-04-25T01:48:06.074Z,92210.97
2023-04-25T01:49:37.766Z,92207.81
2023-04-25T01:51:09.760Z,92207.00
2023-04-25T01:52:41.509Z,92204.88
2023-04-25T01:54:13.116Z,92200.94
2023-04-25T01:55:44.839Z,92196.97
2023-04-25T01:57:16.499Z,92203.16
2023-04-25T01:58:48.115Z,92201.59
2023-04-25T02:00:20.688Z,92210.00
2023-04-25T02:01:52.730Z,92202.03
2023-04-25T02:03:24.417Z,92205.84
2023-04-25T02:04:57.352Z,92206.50
2023-04-25T02:06:29.055Z,92207.63
2023-04-25T02:08:00.612Z,92202.22
2023-04-25T02:09:32.162Z,92197.97
2023-04-25T02:11:04.589Z,92192.16
2023-04-25T02:12:37.027Z,92188.66
2023-04-25T02:14:09.258Z,92190.31
2023-04-25T02:15:41.442Z,92199.06
2023-04-25T02:17:13.900Z,92200.19
2023-04-25T02:18:46.382Z,92200.19
2023-04-25T02:20:18.344Z,92197.16
2023-04-25T02:21:50.027Z,92197.25
2023-04-25T02:23:21.913Z,92194.78
2023-04-25T02:24:54.436Z,92200.81
2023-04-25T02:26:26.603Z,92196.88
2023-04-25T02:27:58.265Z,92193.63
2023-04-25T02:29:30.626Z,92184.28
2023-04-25T02:31:02.358Z,92184.28
2023-04-25T02:32:35.495Z,92180.94
2023-04-25T02:34:07.224Z,92182.41
2023-04-25T02:35:38.859Z,92190.59
2023-04-25T02:37:11.500Z,92188.03
2023-04-25T02:38:43.138Z,92192.44
2023-04-25T02:40:15.121Z,92184.34
2023-04-25T02:41:46.962Z,92188.47
2023-04-25T02:43:19.273Z,92184.53
2023-04-25T02:44:50.859Z,92187.78
2023-04-25T02:46:32.133Z,92177.34
2023-04-25T02:48:09.897Z,92185.28
2023-04-25T02:49:41.566Z,92185.72
2023-04-25T02:51:13.761Z,92182.41
2023-04-25T02:52:46.244Z,92185.09
2023-04-25T02:54:18.443Z,92182.72
2023-04-25T02:55:50.029Z,92184.63
2023-04-25T02:57:21.599Z,92174.31
2023-04-25T02:58:53.527Z,92173.53
2023-04-25T03:00:25.124Z,92176.22
2023-04-25T03:01:56.676Z,92182.91
2023-04-25T03:03:28.282Z,92183.13
2023-04-25T03:04:59.967Z,92184.84
2023-04-25T03:06:32.023Z,92179.09
2023-04-25T03:08:04.082Z,92181.94
2023-04-25T03:09:36.068Z,92179.69
2023-04-25T03:11:07.591Z,92190.94
2023-04-25T03:12:39.208Z,92186.78
2023-04-25T03:14:11.093Z,92178.84
2023-04-25T03:15:42.576Z,92185.00
2023-04-25T03:17:14.072Z,92186.56
2023-04-25T03:18:45.679Z,92183.09
2023-04-25T03:20:17.197Z,92181.66
2023-04-25T03:21:48.973Z,92178.63
2023-04-25T03:23:20.522Z,92177.06
2023-04-25T03:24:52.073Z,92187.97
2023-04-25T03:26:23.713Z,92182.44
2023-04-25T03:27:55.321Z,92186.81
2023-04-25T03:29:28.752Z,92183.47
2023-04-25T03:31:00.442Z,92190.31
2023-04-25T03:32:31.989Z,92196.81
2023-04-25T03:34:03.548Z,92197.59
2023-04-25T03:35:35.034Z,92199.50
2023-04-25T03:37:06.636Z,92192.22
2023-04-25T03:38:38.322Z,92191.63
2023-04-25T03:40:10.115Z,92190.06
2023-04-25T03:41:41.737Z,92196.88
2023-04-25T03:43:13.430Z,92186.91
2023-04-25T03:44:45.623Z,92194.00
2023-04-25T03:46:17.338Z,92187.69
2023-04-25T03:47:49.013Z,92195.31
2023-04-25T03:49:20.824Z,92194.66
2023-04-25T03:50:52.666Z,92191.19
2023-04-25T03:52:24.513Z,92190.72
2023-04-25T03:53:56.075Z,92190.59
2023-04-25T03:55:27.741Z,92187.31
2023-04-25T03:56:59.527Z,92195.47
2023-04-25T03:58:31.167Z,92177.34
2023-04-25T04:00:02.741Z,92185.41
2023-04-25T04:01:34.330Z,92181.72
2023-04-25T04:03:06.266Z,92183.66
2023-04-25T04:04:38.679Z,92189.81
2023-04-25T04:06:10.381Z,92189.81
2023-04-25T04:07:43.840Z,92197.22
2023-04-25T04:09:16.730Z,92189.47
2023-04-25T04:10:48.278Z,92191.06
2023-04-25T04:12:20.134Z,92197.88
2023-04-25T04:13:51.951Z,92185.88
2023-04-25T04:15:23.684Z,92198.56
2023-04-25T04:16:55.218Z,92189.03
2023-04-25T04:18:26.890Z,92192.16
2023-04-25T04:19:58.549Z,92193.09
2023-04-25T04:21:30.205Z,92195.59
2023-04-25T04:23:02.587Z,92196.81
2023-04-25T04:24:34.192Z,92191.13
2023-04-25T04:26:06.255Z,92190.00
2023-04-25T04:27:37.912Z,92196.97
2023-04-25T04:29:09.702Z,92199.31
2023-04-25T04:30:43.150Z,92187.44
2023-04-25T04:32:14.958Z,92192.84
2023-04-25T04:33:46.753Z,92189.69
2023-04-25T04:35:18.458Z,92187.31
2023-04-25T04:36:50.048Z,92190.31
2023-04-25T04:38:22.944Z,92191.78
2023-04-25T04:39:54.489Z,92195.59
2023-04-25T04:41:26.261Z,92194.47
2023-04-25T04:42:58.516Z,92186.06
2023-04-25T04:44:34.149Z,92181.22
2023-04-25T04:46:06.077Z,92186.94
2023-04-25T04:47:38.040Z,92184.56
2023-04-25T04:49:10.443Z,92189.16
2023-04-25T04:50:42.185Z,92185.22
2023-04-25T04:52:13.956Z,92190.59
2023-04-25T04:53:45.513Z,92194.53
2023-04-25T04:55:17.085Z,92196.91
2023-04-25T04:56:48.688Z,92196.72
2023-04-25T04:58:20.350Z,92198.41
2023-04-25T04:59:52.900Z,92192.69
2023-04-25T05:01:24.925Z,92200.44
2023-04-25T05:02:57.350Z,92195.19
2023-04-25T05:04:29.134Z,92205.97
2023-04-25T05:06:00.856Z,92203.28
2023-04-25T05:07:32.406Z,92196.97
2023-04-25T05:09:04.775Z,92195.53
2023-04-25T05:10:36.504Z,92197.63
2023-04-25T05:12:08.334Z,92191.91
2023-04-25T05:13:39.944Z,92192.69
2023-04-25T05:15:11.862Z,92196.63
2023-04-25T05:16:43.634Z,92196.09
2023-04-25T05:18:15.330Z,92195.78
2023-04-25T05:19:47.190Z,92197.47
2023-04-25T05:21:18.769Z,92194.47
2023-04-25T05:22:50.340Z,92184.91
2023-04-25T05:24:21.959Z,92188.88
2023-04-25T05:25:53.607Z,92182.81
2023-04-25T05:27:25.294Z,92183.28
2023-04-25T05:28:56.856Z,92187.88
2023-04-25T05:30:28.551Z,92190.25
2023-04-25T05:32:00.220Z,92192.16
2023-04-25T05:33:32.375Z,92189.47
2023-04-25T05:35:04.152Z,92193.72
2023-04-25T05:36:35.931Z,92194.16
2023-04-25T05:38:07.724Z,92194.94
2023-04-25T05:39:39.387Z,92195.41
2023-04-25T05:41:11.050Z,92196.97
2023-04-25T05:42:42.624Z,92198.56
2023-04-25T05:44:14.337Z,92201.38
2023-04-25T05:45:45.970Z,92199.72
2023-04-25T05:47:17.605Z,92189.75
2023-04-25T05:48:49.253Z,92190.66
2023-04-25T05:50:20.850Z,92196.84
2023-04-25T05:51:52.579Z,92188.41
2023-04-25T05:53:24.170Z,92193.91
2023-04-25T05:54:56.061Z,92200.53
2023-04-25T05:56:27.721Z,92195.34
2023-04-25T05:57:59.317Z,92194.56
2023-04-25T05:59:30.994Z,92199.31
2023-04-25T06:01:02.963Z,92198.78
2023-04-25T06:02:34.675Z,92203.63
2023-04-25T06:04:06.675Z,92210.38
2023-04-25T06:05:39.227Z,92205.09
2023-04-25T06:07:10.986Z,92205.25
2023-04-25T06:08:43.910Z,92208.72
2023-04-25T06:10:16.600Z,92204.13
2023-04-25T06:11:48.118Z,92200.72
2023-04-25T06:13:19.621Z,92199.09
2023-04-25T06:14:51.317Z,92206.28
2023-04-25T06:16:23.027Z,92213.47
2023-04-25T06:17:54.588Z,92206.28
2023-04-25T06:19:26.191Z,92206.84
2023-04-25T06:20:58.276Z,92201.91
2023-04-25T06:22:30.407Z,92203.72
2023-04-25T06:24:01.961Z,92213.03
2023-04-25T06:25:33.578Z,92211.81
2023-04-25T06:27:05.205Z,92211.69
2023-04-25T06:28:36.848Z,92206.28
2023-04-25T06:30:08.758Z,92206.28
2023-04-25T06:31:41.154Z,92214.38
2023-04-25T06:33:12.804Z,92217.75
2023-04-25T06:34:44.538Z,92219.09
2023-04-25T06:36:16.131Z,92208.41
2023-04-25T06:37:47.786Z,92217.63
2023-04-25T06:39:21.172Z,92208.06
2023-04-25T06:40:52.907Z,92205.16
2023-04-25T06:42:24.551Z,92209.19
2023-04-25T06:43:56.160Z,92211.03
2023-04-25T06:45:27.733Z,92213.59
2023-04-25T06:46:59.578Z,92217.75
2023-04-25T06:48:31.579Z,92213.03
2023-04-25T06:50:03.185Z,92213.03
2023-04-25T06:51:34.813Z,92220.44
2023-04-25T06:53:06.947Z,92216.75
2023-04-25T06:54:38.730Z,92215.84
2023-04-25T06:56:10.525Z,92210.91
2023-04-25T06:57:42.249Z,92220.09
2023-04-25T06:59:14.073Z,92222.47
2023-04-25T07:00:46.269Z,92207.38
2023-04-25T07:02:18.042Z,92211.88
2023-04-25T07:03:49.911Z,92217.16
2023-04-25T07:05:22.376Z,92217.03
2023-04-25T07:06:54.290Z,92213.69
2023-04-25T07:08:26.429Z,92213.81
2023-04-25T07:09:58.235Z,92214.69
2023-04-25T07:11:30.328Z,92205.59
2023-04-25T07:13:01.916Z,92214.59
2023-04-25T07:14:33.958Z,92215.81
2023-04-25T07:16:06.533Z,92210.22
2023-04-25T07:17:38.627Z,92210.91
2023-04-25T07:19:10.530Z,92209.66
2023-04-25T07:20:42.428Z,92209.78
2023-04-25T07:22:14.130Z,92212.94
2023-04-25T07:23:46.381Z,92200.66
2023-04-25T07:25:19.333Z,92206.97
2023-04-25T07:26:51.216Z,92198.66
2023-04-25T07:28:22.896Z,92209.31
2023-04-25T07:29:54.974Z,92201.44
2023-04-25T07:31:26.994Z,92203.78
2023-04-25T07:32:59.069Z,92198.06
2023-04-25T07:34:31.669Z,92205.47
2023-04-25T07:36:03.770Z,92200.97
2023-04-25T07:37:36.480Z,92201.97
2023-04-25T07:39:10.412Z,92191.06
2023-04-25T07:40:42.157Z,92195.09
2023-04-25T07:42:14.272Z,92198.34
2023-04-25T07:43:46.568Z,92189.66
2023-04-25T07:45:18.216Z,92186.38
2023-04-25T07:46:49.953Z,92188.50
2023-04-25T07:48:21.532Z,92184.94
2023-04-25T07:49:53.073Z,92174.97
2023-04-25T07:51:24.676Z,92181.88
2023-04-25T07:52:56.241Z,92184.44
2023-04-25T07:54:27.929Z,92183.13
2023-04-25T07:55:59.540Z,92182.88
2023-04-25T07:57:31.498Z,92175.03
2023-04-25T07:59:03.109Z,92182.44
2023-04-25T08:00:34.944Z,92179.94
2023-04-25T08:02:06.784Z,92180.56
2023-04-25T08:03:38.558Z,92175.91
2023-04-25T08:05:13.239Z,92171.88
2023-04-25T08:06:45.563Z,92168.28
2023-04-25T08:08:17.221Z,92162.16
2023-04-25T08:09:48.778Z,92161.41
2023-04-25T08:11:20.397Z,92157.19
2023-04-25T08:12:52.669Z,92155.31
2023-04-25T08:14:24.312Z,92164.97
2023-04-25T08:15:55.994Z,92170.94
2023-04-25T08:17:27.682Z,92165.13
2023-04-25T08:19:00.230Z,92178.72
2023-04-25T08:20:32.305Z,92171.38
2023-04-25T08:22:03.978Z,92175.84
2023-04-25T08:23:36.074Z,92173.84
2023-04-25T08:25:08.506Z,92176.78
2023-04-25T08:26:41.972Z,92173.50
2023-04-25T08:28:13.659Z,92180.47
2023-04-25T08:29:45.774Z,92170.69
2023-04-25T08:31:17.953Z,92167.81
2023-04-25T08:32:49.975Z,92170.59
2023-04-25T08:34:22.125Z,92169.84
2023-04-25T08:35:54.609Z,92172.00
2023-04-25T08:37:26.973Z,92160.97
2023-04-25T08:38:59.252Z,92162.75
2023-04-25T08:40:31.333Z,92157.41
2023-04-25T08:42:04.854Z,92158.63
2023-04-25T08:43:36.550Z,92171.44
2023-04-25T08:45:08.800Z,92164.41
2023-04-25T08:46:43.407Z,92166.69
2023-04-25T08:48:15.973Z,92160.13
2023-04-25T08:49:48.535Z,92154.88
2023-04-25T08:51:23.209Z,92159.66
2023-04-25T08:52:55.465Z,92165.31
2023-04-25T08:54:35.548Z,92164.41
2023-04-25T08:56:08.366Z,92171.19
2023-04-25T08:57:40.511Z,92165.13
2023-04-25T08:59:14.960Z,92165.31
2023-04-25T09:00:47.175Z,92161.03
2023-04-25T09:02:21.175Z,92165.75
2023-04-25T09:03:52.817Z,92161.22
2023-04-25T09:05:24.557Z,92156.44
2023-04-25T09:06:56.381Z,92153.44
2023-04-25T09:08:28.240Z,92149.63
2023-04-25T09:10:04.674Z,92159.25
2023-04-25T09:11:37.460Z,92158.09
2023-04-25T09:13:16.342Z,92162.72
2023-04-25T09:15:05.844Z,92170.19
2023-04-25T09:16:39.521Z,92165.94
2023-04-25T09:18:11.908Z,92152.63
2023-04-25T09:19:45.466Z,92141.91
2023-04-25T09:21:17.688Z,92141.56
2023-04-25T09:22:49.350Z,92140.44
2023-04-25T09:24:40.061Z,92143.91
2023-04-25T09:26:11.884Z,92132.81
2023-04-25T09:27:54.562Z,92132.53
2023-04-25T09:29:32.721Z,92128.84
2023-04-25T09:31:04.420Z,92130.13
2023-04-25T09:32:36.881Z,92132.06
2023-04-25T09:34:08.505Z,92131.28
2023-04-25T09:35:46.655Z,92133.97
2023-04-25T09:37:22.410Z,92145.34
2023-04-25T09:38:54.635Z,92131.47
2023-04-25T09:40:26.669Z,92130.78
2023-04-25T09:41:58.527Z,92137.41
2023-04-25T09:43:30.846Z,92133.69
2023-04-25T09:45:05.705Z,92128.56
2023-04-25T09:46:40.540Z,92134.28
2023-04-25T09:48:13.133Z,92134.91
2023-04-25T09:49:45.063Z,92138.81
2023-04-25T09:51:16.875Z,92135.59
2023-04-25T09:52:51.995Z,92134.28
2023-04-25T09:54:24.238Z,92134.16
2023-04-25T09:55:55.844Z,92137.75
2023-04-25T09:57:27.432Z,92133.53
2023-04-25T09:58:59.017Z,92132.41
2023-04-25T10:00:30.718Z,92130.31
2023-04-25T10:02:02.259Z,92127.44
2023-04-25T10:03:34.569Z,92129.56
2023-04-25T10:05:07.377Z,92119.91
2023-04-25T10:06:39.323Z,92119.03
2023-04-25T10:08:11.217Z,92119.66
2023-04-25T10:09:43.166Z,92129.69
2023-04-25T10:11:16.950Z,92120.38
2023-04-25T10:12:48.610Z,92130.09
2023-04-25T10:14:20.374Z,92114.25
2023-04-25T10:15:52.530Z,92133.19
2023-04-25T10:17:24.754Z,92128.13
2023-04-25T10:18:56.439Z,92133.59
2023-04-25T10:20:28.188Z,92128.97
2023-04-25T10:22:07.720Z,92120.53
2023-04-25T10:23:39.414Z,92125.94
2023-04-25T10:25:11.061Z,92121.94
2023-04-25T10:26:42.779Z,92120.31
2023-04-25T10:28:14.280Z,92122.22
2023-04-25T10:29:45.989Z,92124.53
2023-04-25T10:31:18.929Z,92124.94
2023-04-25T10:32:52.090Z,92124.97
2023-04-25T10:34:41.217Z,92128.16
2023-04-25T10:36:18.412Z,92123.16
2023-04-25T10:38:05.419Z,92123.53
2023-04-25T10:39:37.029Z,92118.91
2023-04-25T10:41:12.544Z,92127.47
2023-04-25T10:42:44.321Z,92121.75
2023-04-25T10:44:17.002Z,92123.34
2023-04-25T10:45:54.787Z,92121.41
2023-04-25T10:47:35.672Z,92116.31
2023-04-25T10:49:07.868Z,92109.38
2023-04-25T10:50:40.398Z,92116.88
2023-04-25T10:52:12.502Z,92107.00
2023-04-25T10:53:56.466Z,92107.31
2023-04-25T10:55:28.346Z,92103.75
2023-04-25T10:57:00.274Z,92095.38
2023-04-25T10:58:32.232Z,92094.81
2023-04-25T11:00:12.365Z,92099.66
2023-04-25T11:01:48.183Z,92094.38
2023-04-25T11:03:22.823Z,92090.56
2023-04-25T11:04:54.849Z,92087.88
2023-04-25T11:06:29.921Z,92091.00
2023-04-25T11:08:07.723Z,92093.72
2023-04-25T11:09:40.491Z,92091.31
2023-04-25T11:11:12.167Z,92098.19
2023-04-25T11:12:44.428Z,92086.38
2023-04-25T11:14:16.466Z,92084.69
2023-04-25T11:16:03.048Z,92096.50
2023-04-25T11:17:46.090Z,92081.19
2023-04-25T11:19:20.330Z,92084.63
2023-04-25T11:20:52.480Z,92086.31
2023-04-25T11:22:24.258Z,92091.75
2023-04-25T11:23:57.670Z,92091.63
2023-04-25T11:25:29.418Z,92095.28
2023-04-25T11:27:03.362Z,92098.16
2023-04-25T11:28:35.096Z,92095.38
2023-04-25T11:30:16.844Z,92105.16
2023-04-25T11:31:49.177Z,92110.25
2023-04-25T11:33:24.167Z,92102.19
2023-04-25T11:34:55.871Z,92096.50
2023-04-25T11:36:28.019Z,92092.44
2023-04-25T11:37:59.685Z,92101.22
2023-04-25T11:39:31.326Z,92092.56
2023-04-25T11:41:02.904Z,92092.88
2023-04-25T11:42:34.865Z,92092.00
2023-04-25T11:44:06.926Z,92100.66
2023-04-25T11:45:38.613Z,92094.25
2023-04-25T11:47:11.361Z,92086.78
2023-04-25T11:48:43.118Z,92089.06
2023-04-25T11:50:15.553Z,92086.06
2023-04-25T11:51:47.901Z,92094.63
2023-04-25T11:53:19.758Z,92098.13
2023-04-25T11:54:51.534Z,92103.72
2023-04-25T11:56:23.319Z,92117.81
2023-04-25T11:57:54.868Z,92127.25
2023-04-25T11:59:27.738Z,92145.53
2023-04-25T12:01:01.011Z,92152.75
2023-04-25T12:02:33.653Z,92152.41
2023-04-25T12:04:17.886Z,92140.69
2023-04-25T12:05:50.196Z,92139.22
2023-04-25T12:07:23.870Z,92140.69
2023-04-25T12:09:02.777Z,92135.28
2023-04-25T12:10:34.375Z,92133.03
2023-04-25T12:12:06.985Z,92124.81
2023-04-25T12:13:39.246Z,92122.47
2023-04-25T12:15:16.352Z,92122.50
2023-04-25T12:16:47.889Z,92122.44
2023-04-25T12:18:24.048Z,92122.25
2023-04-25T12:19:55.840Z,92122.94
2023-04-25T12:21:29.448Z,92130.13
2023-04-25T12:23:01.705Z,92128.44
2023-04-25T12:24:38.467Z,92124.97
2023-04-25T12:26:10.477Z,92129.91
2023-04-25T12:27:45.140Z,92136.47
2023-04-25T12:29:29.584Z,92135.31
2023-04-25T12:31:04.535Z,92140.31
2023-04-25T12:32:36.976Z,92137.63
2023-04-25T12:34:10.629Z,92134.97
2023-04-25T12:35:43.244Z,92129.22
2023-04-25T12:37:17.065Z,92133.84
2023-04-25T12:38:49.225Z,92131.25
2023-04-25T12:40:21.556Z,92132.53
2023-04-25T12:41:55.827Z,92134.56
2023-04-25T12:43:27.609Z,92132.41
2023-04-25T12:44:59.346Z,92132.47
2023-04-25T12:46:31.411Z,92136.94
2023-04-25T12:48:04.245Z,92127.84
2023-04-25T12:49:36.136Z,92126.78
2023-04-25T12:51:07.842Z,92127.22
2023-04-25T12:52:39.872Z,92121.66
2023-04-25T12:54:11.824Z,92114.56
2023-04-25T12:55:43.720Z,92108.81
2023-04-25T12:57:15.955Z,92113.19
2023-04-25T12:58:49.762Z,92108.28
2023-04-25T13:00:21.669Z,92111.06
2023-04-25T13:01:53.534Z,92113.13
2023-04-25T13:03:25.809Z,92111.31
2023-04-25T13:04:57.640Z,92104.47
2023-04-25T13:06:31.161Z,92115.81
2023-04-25T13:08:02.800Z,92103.16
2023-04-25T13:09:36.859Z,92101.72
2023-04-25T13:11:08.422Z,92106.09
2023-04-25T13:12:40.025Z,92103.00
2023-04-25T13:14:11.836Z,92101.84
2023-04-25T13:15:43.418Z,92105.00
2023-04-25T13:17:15.011Z,92107.34
2023-04-25T13:18:46.738Z,92109.38
2023-04-25T13:20:20.007Z,92105.31
2023-04-25T13:21:51.732Z,92105.59
2023-04-25T13:23:23.777Z,92103.72
2023-04-25T13:24:55.432Z,92101.00
2023-04-25T13:26:27.094Z,92103.31
2023-04-25T13:27:58.692Z,92109.88
2023-04-25T13:29:30.284Z,92111.44
2023-04-25T13:31:01.945Z,92102.63
2023-04-25T13:32:34.926Z,92112.19
2023-04-25T13:34:06.727Z,92104.81
2023-04-25T13:35:38.589Z,92103.31
2023-04-25T13:37:10.771Z,92108.75
2023-04-25T13:38:45.122Z,92109.13
2023-04-25T13:40:16.884Z,92109.50
2023-04-25T13:41:48.454Z,92104.19
2023-04-25T13:43:21.031Z,92111.31
2023-04-25T13:44:52.883Z,92101.31
2023-04-25T13:46:44.589Z,92101.44
2023-04-25T13:48:16.814Z,92104.00
2023-04-25T13:49:48.372Z,92105.75
2023-04-25T13:51:19.963Z,92105.56
2023-04-25T13:52:51.620Z,92101.81
2023-04-25T13:54:23.954Z,92096.84
2023-04-25T13:55:55.636Z,92104.22
2023-04-25T13:57:27.430Z,92101.91
2023-04-25T13:58:59.244Z,92101.22
2023-04-25T14:00:30.838Z,92109.34
2023-04-25T14:02:03.080Z,92101.56
2023-04-25T14:03:36.026Z,92099.19
2023-04-25T14:05:08.110Z,92098.44
2023-04-25T14:06:40.282Z,92092.66
2023-04-25T14:08:11.935Z,92099.34
2023-04-25T14:09:43.614Z,92092.88
2023-04-25T14:11:15.236Z,92093.78
2023-04-25T14:12:46.908Z,92090.78
2023-04-25T14:14:18.449Z,92094.56
2023-04-25T14:15:51.437Z,92092.53
2023-04-25T14:17:23.283Z,92085.47
2023-04-25T14:18:55.734Z,92075.34
2023-04-25T14:20:27.680Z,92080.13
2023-04-25T14:21:59.348Z,92088.31
2023-04-25T14:23:30.888Z,92073.78
2023-04-25T14:25:02.613Z,92076.81
2023-04-25T14:26:37.812Z,92073.78
2023-04-25T14:28:09.526Z,92078.13
2023-04-25T14:29:41.537Z,92076.00
2023-04-25T14:31:13.359Z,92077.88
2023-04-25T14:32:45.480Z,92072.94
2023-04-25T14:34:17.159Z,92074.94
2023-04-25T14:35:48.833Z,92070.84
2023-04-25T14:37:20.640Z,92068.56
2023-04-25T14:38:52.260Z,92068.16
2023-04-25T14:40:24.235Z,92064.97
2023-04-25T14:41:55.860Z,92064.19
2023-04-25T14:43:27.564Z,92063.47
2023-04-25T14:44:59.194Z,92058.47
2023-04-25T14:46:30.902Z,92063.56
2023-04-25T14:48:03.063Z,92063.94
2023-04-25T14:49:34.900Z,92064.63
2023-04-25T14:51:06.727Z,92068.41
2023-04-25T14:52:38.311Z,92070.75
2023-04-25T14:54:09.922Z,92071.13
2023-04-25T14:55:41.630Z,92063.06
2023-04-25T14:57:13.456Z,92061.78
2023-04-25T14:58:44.962Z,92063.66
2023-04-25T15:00:17.576Z,92065.53
2023-04-25T15:01:49.240Z,92059.63
2023-04-25T15:03:21.010Z,92055.66
2023-04-25T15:04:52.866Z,92058.34
2023-04-25T15:06:27.485Z,92054.50
2023-04-25T15:07:59.618Z,92056.84
2023-04-25T15:09:31.254Z,92058.84
2023-04-25T15:11:04.032Z,92053.47
2023-04-25T15:12:35.575Z,92058.53
2023-04-25T15:14:07.539Z,92062.44
2023-04-25T15:15:39.083Z,92058.97
2023-04-25T15:17:10.809Z,92053.09
2023-04-25T15:18:42.411Z,92057.28
2023-04-25T15:20:16.957Z,92056.00
2023-04-25T15:21:49.078Z,92057.81
2023-04-25T15:23:21.029Z,92062.75
2023-04-25T15:24:52.702Z,92057.53
2023-04-25T15:26:24.415Z,92048.09
2023-04-25T15:27:56.057Z,92056.91
2023-04-25T15:29:28.266Z,92049.41
2023-04-25T15:30:59.836Z,92042.72
2023-04-25T15:32:31.402Z,92038.31
2023-04-25T15:34:03.561Z,92036.66
2023-04-25T15:35:35.065Z,92030.38
2023-04-25T15:37:06.583Z,92028.81
2023-04-25T15:38:38.542Z,92030.38
2023-04-25T15:40:12.191Z,92033.09
2023-04-25T15:41:43.726Z,92036.16
2023-04-25T15:43:16.581Z,92033.44
2023-04-25T15:44:48.208Z,92031.13
2023-04-25T15:46:20.061Z,92025.19
2023-04-25T15:47:53.129Z,92032.88
2023-04-25T15:49:24.820Z,92035.94
2023-04-25T15:50:56.378Z,92033.59
2023-04-25T15:52:27.994Z,92037.31
2023-04-25T15:53:59.519Z,92046.72
2023-04-25T15:55:31.194Z,92045.09
2023-04-25T15:57:02.826Z,92042.66
2023-04-25T15:58:34.902Z,92047.28
2023-04-25T16:00:11.314Z,92052.25
2023-04-25T16:01:43.228Z,92054.91
2023-04-25T16:03:15.161Z,92059.09
2023-04-25T16:04:47.395Z,92052.47
2023-04-25T16:06:19.130Z,92066.34
2023-04-25T16:07:53.903Z,92069.34
2023-04-25T16:09:25.727Z,92075.03
2023-04-25T16:10:57.709Z,92073.75
2023-04-25T16:12:30.032Z,92083.25
2023-04-25T16:14:01.672Z,92085.44
2023-04-25T16:15:35.445Z,92098.09
2023-04-25T16:17:07.541Z,92090.25
2023-04-25T16:18:39.567Z,92086.75
2023-04-25T16:20:12.785Z,92085.47
2023-04-25T16:21:45.420Z,92082.28
2023-04-25T16:23:17.021Z,92090.41
2023-04-25T16:24:48.585Z,92084.72
2023-04-25T16:26:20.167Z,92082.84
2023-04-25T16:27:52.337Z,92083.34
2023-04-25T16:29:24.085Z,92069.69
2023-04-25T16:30:55.688Z,92071.81
2023-04-25T16:32:27.746Z,92069.00
2023-04-25T16:33:59.408Z,92065.75
2023-04-25T16:35:32.969Z,92072.50
2023-04-25T16:37:04.696Z,92068.00
2023-04-25T16:38:37.198Z,92059.38
2023-04-25T16:40:11.971Z,92060.38
2023-04-25T16:41:44.468Z,92062.19
2023-04-25T16:43:20.075Z,92055.78
2023-04-25T16:44:51.788Z,92060.13
2023-04-25T16:46:24.137Z,92057.78
2023-04-25T16:47:55.871Z,92061.72
2023-04-25T16:49:27.582Z,92069.56
2023-04-25T16:50:59.354Z,92072.41
2023-04-25T16:52:31.832Z,92068.47
2023-04-25T16:54:03.710Z,92079.38
2023-04-25T16:55:35.688Z,92070.16
2023-04-25T16:57:10.590Z,92071.75
2023-04-25T16:58:42.387Z,92074.88
2023-04-25T17:00:14.756Z,92072.16
2023-04-25T17:01:46.427Z,92075.56
2023-04-25T17:03:18.235Z,92080.03
2023-04-25T17:04:50.460Z,92075.66
2023-04-25T17:06:22.284Z,92080.25
2023-04-25T17:07:53.923Z,92073.75
2023-04-25T17:09:26.501Z,92080.69
2023-04-25T17:11:00.153Z,92079.81
2023-04-25T17:12:31.841Z,92090.38
2023-04-25T17:14:03.816Z,92088.56
2023-04-25T17:15:35.822Z,92092.06
2023-04-25T17:17:07.427Z,92097.91
2023-04-25T17:18:39.266Z,92098.00
2023-04-25T17:20:11.181Z,92099.13
2023-04-25T17:21:42.914Z,92093.19
2023-04-25T17:23:15.011Z,92099.22
2023-04-25T17:24:46.792Z,92096.75
2023-04-25T17:26:18.548Z,92100.03
2023-04-25T17:27:50.215Z,92108.56
2023-04-25T17:29:24.024Z,92103.28
2023-04-25T17:30:56.243Z,92106.75
2023-04-25T17:32:28.056Z,92107.19
2023-04-25T17:34:01.258Z,92114.16
2023-04-25T17:35:34.161Z,92111.13
2023-04-25T17:37:06.304Z,92122.38
2023-04-25T17:38:39.490Z,92125.41
2023-04-25T17:40:12.341Z,92119.56
2023-04-25T17:41:44.916Z,92122.91
2023-04-25T17:43:16.727Z,92130.47
2023-04-25T17:44:48.533Z,92127.31
2023-04-25T17:46:20.196Z,92133.47
2023-04-25T17:47:51.828Z,92135.97
2023-04-25T17:49:23.506Z,92127.66
2023-04-25T17:50:55.052Z,92132.38
2023-04-25T17:52:27.979Z,92140.91
2023-04-25T17:54:01.461Z,92137.44
2023-04-25T17:55:33.118Z,92138.88
2023-04-25T17:57:04.887Z,92142.81
2023-04-25T17:58:36.514Z,92140.56
2023-04-25T18:00:09.682Z,92139.19
2023-04-25T18:01:43.830Z,92142.13
2023-04-25T18:03:19.604Z,92142.78
2023-04-25T18:04:51.690Z,92150.38
2023-04-25T18:06:23.650Z,92150.38